createdAt,value
2023-07-23T00:01:11.856Z,96830.69
2023-07-23T00:03:39.019Z,96832.84
2023-07-23T00:06:06.152Z,96831.03
2023-07-23T00:08:37.322Z,96825.25
2023-07-23T00:11:04.388Z,96833.78
2023-07-23T00:13:30.998Z,96826.63
2023-07-23T00:15:57.685Z,96823.16
2023-07-23T00:18:27.412Z,96812.97
2023-07-23T00:20:53.994Z,96818.00
2023-07-23T00:23:20.601Z,96808.97
2023-07-23T00:25:47.267Z,96813.28
2023-07-23T00:28:16.813Z,96819.53
2023-07-23T00:30:45.659Z,96816.16
2023-07-23T00:33:12.668Z,96804.63
2023-07-23T00:35:39.916Z,96817.09
2023-07-23T00:38:06.569Z,96811.50
2023-07-23T00:40:33.208Z,96806.63
2023-07-23T00:43:02.010Z,96810.13
2023-07-23T00:45:28.626Z,96808.75
2023-07-23T00:47:55.355Z,96802.50
2023-07-23T00:50:24.759Z,96801.75
2023-07-23T00:52:54.683Z,96806.31
2023-07-23T00:55:21.765Z,96800.69
2023-07-23T00:57:48.472Z,96804.50
2023-07-23T01:00:15.756Z,96803.72
2023-07-23T01:02:45.566Z,96792.19
2023-07-23T01:05:15.067Z,96788.88
2023-07-23T01:07:46.389Z,96790.97
2023-07-23T01:10:13.948Z,96788.09
2023-07-23T01:12:44.873Z,96783.09
2023-07-23T01:15:13.919Z,96790.84
2023-07-23T01:17:42.557Z,96790.97
2023-07-23T01:20:12.494Z,96787.34
2023-07-23T01:22:41.741Z,96788.41
2023-07-23T01:25:08.681Z,96791.91
2023-07-23T01:27:35.363Z,96791.31
2023-07-23T01:30:02.642Z,96790.09
2023-07-23T01:32:34.409Z,96792.66
2023-07-23T01:35:07.502Z,96799.34
2023-07-23T01:37:40.397Z,96799.97
2023-07-23T01:40:10.026Z,96794.16
2023-07-23T01:42:39.099Z,96799.66
2023-07-23T01:45:08.538Z,96790.81
2023-07-23T01:47:35.176Z,96789.16
2023-07-23T01:50:06.259Z,96790.06
2023-07-23T01:52:38.858Z,96790.69
2023-07-23T01:55:06.071Z,96788.09
2023-07-23T01:57:35.403Z,96791.56
2023-07-23T02:00:06.759Z,96791.56
2023-07-23T02:02:35.936Z,96789.59
2023-07-23T02:05:03.753Z,96788.53
2023-07-23T02:07:30.558Z,96788.06
2023-07-23T02:09:57.164Z,96790.22
2023-07-23T02:12:28.604Z,96787.75
2023-07-23T02:14:57.523Z,96784.00
2023-07-23T02:17:26.510Z,96774.84
2023-07-23T02:19:53.306Z,96777.28
2023-07-23T02:22:22.179Z,96776.06
2023-07-23T02:24:51.577Z,96776.22
2023-07-23T02:27:20.268Z,96771.97
2023-07-23T02:29:47.270Z,96780.94
2023-07-23T02:32:16.820Z,96781.38
2023-07-23T02:34:43.512Z,96786.53
2023-07-23T02:37:10.113Z,96784.69
2023-07-23T02:39:39.638Z,96783.47
2023-07-23T02:42:08.460Z,96789.25
2023-07-23T02:44:38.440Z,96780.88
2023-07-23T02:47:05.036Z,96786.66
2023-07-23T02:49:31.612Z,96783.03
2023-07-23T02:52:02.403Z,96782.25
2023-07-23T02:54:31.258Z,96797.13
2023-07-23T02:57:03.110Z,96787.41
2023-07-23T02:59:29.653Z,96786.50
2023-07-23T03:01:58.566Z,96781.28
2023-07-23T03:04:28.581Z,96773.72
2023-07-23T03:07:00.008Z,96782.63
2023-07-23T03:09:28.918Z,96789.56
2023-07-23T03:11:55.574Z,96778.19
2023-07-23T03:14:24.663Z,96787.75
2023-07-23T03:16:54.213Z,96790.50
2023-07-23T03:19:23.383Z,96778.47
2023-07-23T03:21:52.489Z,96783.56
2023-07-23T03:24:19.122Z,96783.81
2023-07-23T03:26:46.117Z,96785.63
2023-07-23T03:29:15.391Z,96789.09
2023-07-23T03:31:45.074Z,96787.75
2023-07-23T03:34:11.647Z,96785.75
2023-07-23T03:36:40.454Z,96789.69
2023-07-23T03:39:09.157Z,96781.19
2023-07-23T03:41:35.795Z,96782.81
2023-07-23T03:44:02.747Z,96783.25
2023-07-23T03:46:29.853Z,96783.25
2023-07-23T03:48:56.822Z,96792.19
2023-07-23T03:51:23.457Z,96791.28
2023-07-23T03:53:50.345Z,96792.16
2023-07-23T03:56:19.650Z,96796.88
2023-07-23T03:58:48.648Z,96789.16
2023-07-23T04:01:15.408Z,96799.59
2023-07-23T04:03:49.349Z,96795.22
2023-07-23T04:06:18.230Z,96799.31
2023-07-23T04:08:47.040Z,96806.31
2023-07-23T04:11:13.740Z,96806.31
2023-07-23T04:13:40.483Z,96812.53
2023-07-23T04:16:11.954Z,96806.13
2023-07-23T04:18:49.894Z,96807.81
2023-07-23T04:21:20.243Z,96807.72
2023-07-23T04:23:48.305Z,96801.97
2023-07-23T04:26:23.094Z,96803.44
2023-07-23T04:28:50.763Z,96796.28
2023-07-23T04:31:19.801Z,96794.63
2023-07-23T04:33:49.439Z,96799.94
2023-07-23T04:36:16.572Z,96800.16
2023-07-23T04:38:48.492Z,96801.97
2023-07-23T04:41:18.009Z,96807.94
2023-07-23T04:43:47.018Z,96808.25
2023-07-23T04:46:19.242Z,96807.44
2023-07-23T04:48:45.888Z,96805.66
2023-07-23T04:51:15.063Z,96806.03
2023-07-23T04:53:41.692Z,96805.16
2023-07-23T04:56:10.919Z,96806.13
2023-07-23T04:58:39.803Z,96808.00
2023-07-23T05:01:14.496Z,96804.50
2023-07-23T05:03:41.745Z,96812.69
2023-07-23T05:06:12.925Z,96812.88
2023-07-23T05:08:44.857Z,96822.31
2023-07-23T05:11:11.905Z,96814.09
2023-07-23T05:13:38.626Z,96823.81
2023-07-23T05:16:05.394Z,96816.69
2023-07-23T05:18:35.144Z,96820.34
2023-07-23T05:21:08.084Z,96824.63
2023-07-23T05:23:36.927Z,96824.13
2023-07-23T05:26:06.078Z,96823.81
2023-07-23T05:28:35.209Z,96824.63
2023-07-23T05:31:04.518Z,96819.22
2023-07-23T05:33:31.776Z,96823.78
2023-07-23T05:35:59.376Z,96813.53
2023-07-23T05:38:28.429Z,96824.13
2023-07-23T05:40:56.626Z,96824.81
2023-07-23T05:43:23.682Z,96822.91
2023-07-23T05:45:55.208Z,96816.25
2023-07-23T05:48:22.167Z,96823.63
2023-07-23T05:50:48.882Z,96825.91
2023-07-23T05:53:17.814Z,96823.78
2023-07-23T05:55:44.550Z,96824.31
2023-07-23T05:58:13.488Z,96826.97
2023-07-23T06:00:42.418Z,96828.88
2023-07-23T06:03:09.201Z,96824.66
2023-07-23T06:05:35.833Z,96832.28
2023-07-23T06:08:07.185Z,96831.50
2023-07-23T06:10:36.203Z,96831.13
2023-07-23T06:13:03.155Z,96835.03
2023-07-23T06:15:32.116Z,96829.91
2023-07-23T06:18:03.579Z,96829.34
2023-07-23T06:20:35.111Z,96830.66
2023-07-23T06:23:02.491Z,96829.88
2023-07-23T06:25:29.164Z,96834.59
2023-07-23T06:27:58.226Z,96831.59
2023-07-23T06:30:24.844Z,96828.41
2023-07-23T06:32:51.594Z,96828.25
2023-07-23T06:35:18.348Z,96827.63
2023-07-23T06:37:45.099Z,96829.63
2023-07-23T06:40:11.855Z,96833.16
2023-07-23T06:42:38.810Z,96825.59
2023-07-23T06:45:08.505Z,96826.41
2023-07-23T06:47:40.056Z,96827.72
2023-07-23T06:50:09.474Z,96823.47
2023-07-23T06:52:38.821Z,96822.88
2023-07-23T06:55:05.799Z,96821.97
2023-07-23T06:57:34.812Z,96820.75
2023-07-23T07:00:04.321Z,96823.84
2023-07-23T07:02:31.165Z,96833.50
2023-07-23T07:04:57.795Z,96833.22
2023-07-23T07:07:24.790Z,96822.97
2023-07-23T07:09:55.743Z,96832.28
2023-07-23T07:12:24.556Z,96825.84
2023-07-23T07:14:53.701Z,96824.06
2023-07-23T07:17:20.324Z,96827.84
2023-07-23T07:19:49.258Z,96827.75
2023-07-23T07:22:18.405Z,96826.09
2023-07-23T07:24:45.049Z,96833.00
2023-07-23T07:27:16.063Z,96838.84
2023-07-23T07:29:42.792Z,96829.94
2023-07-23T07:32:11.770Z,96832.59
2023-07-23T07:34:38.381Z,96818.56
2023-07-23T07:37:09.834Z,96826.13
2023-07-23T07:39:36.463Z,96826.34
2023-07-23T07:42:05.363Z,96833.41
2023-07-23T07:44:33.742Z,96830.25
2023-07-23T07:47:00.844Z,96832.59
2023-07-23T07:49:29.769Z,96835.41
2023-07-23T07:51:58.967Z,96835.03
2023-07-23T07:54:25.586Z,96831.25
2023-07-23T07:56:52.664Z,96828.72
2023-07-23T07:59:22.021Z,96826.97
2023-07-23T08:01:51.708Z,96819.03
2023-07-23T08:04:18.722Z,96818.06
2023-07-23T08:06:48.221Z,96829.13
2023-07-23T08:09:23.624Z,96812.78
2023-07-23T08:11:50.637Z,96816.31
2023-07-23T08:14:23.354Z,96817.34
2023-07-23T08:16:53.638Z,96815.50
2023-07-23T08:19:22.769Z,96820.97
2023-07-23T08:21:51.850Z,96821.22
2023-07-23T08:24:21.144Z,96822.72
2023-07-23T08:26:50.684Z,96815.91
2023-07-23T08:29:19.810Z,96817.22
2023-07-23T08:31:46.828Z,96807.13
2023-07-23T08:34:13.823Z,96814.09
2023-07-23T08:36:40.767Z,96810.09
2023-07-23T08:39:10.116Z,96801.94
2023-07-23T08:41:40.128Z,96810.69
2023-07-23T08:44:28.338Z,96812.22
2023-07-23T08:47:08.804Z,96810.00
2023-07-23T08:49:35.392Z,96807.22
2023-07-23T08:52:05.962Z,96810.22
2023-07-23T08:54:36.268Z,96807.53
2023-07-23T08:57:05.878Z,96799.94
2023-07-23T08:59:34.340Z,96804.78
2023-07-23T09:02:03.873Z,96805.81
2023-07-23T09:04:33.862Z,96806.34
2023-07-23T09:07:01.755Z,96796.19
2023-07-23T09:09:30.704Z,96796.44
2023-07-23T09:11:59.644Z,96803.19
2023-07-23T09:14:28.564Z,96800.84
2023-07-23T09:16:55.571Z,96801.16
2023-07-23T09:19:28.023Z,96798.03
2023-07-23T09:22:00.909Z,96789.81
2023-07-23T09:24:35.928Z,96791.38
2023-07-23T09:27:03.658Z,96795.31
2023-07-23T09:29:42.911Z,96795.28
2023-07-23T09:32:27.769Z,96791.28
2023-07-23T09:35:04.284Z,96794.16
2023-07-23T09:37:34.641Z,96787.81
2023-07-23T09:40:01.268Z,96782.41
2023-07-23T09:42:27.972Z,96776.34
2023-07-23T09:45:00.826Z,96776.59
2023-07-23T09:47:31.304Z,96777.00
2023-07-23T09:49:57.970Z,96775.72
2023-07-23T09:52:35.251Z,96779.78
2023-07-23T09:55:04.624Z,96772.56
2023-07-23T09:57:35.304Z,96771.63
2023-07-23T10:00:07.182Z,96768.66
2023-07-23T10:02:41.715Z,96769.25
2023-07-23T10:05:08.790Z,96763.75
2023-07-23T10:07:39.316Z,96769.97
2023-07-23T10:10:09.785Z,96766.50
2023-07-23T10:12:38.613Z,96757.34
2023-07-23T10:15:07.013Z,96755.34
2023-07-23T10:17:40.424Z,96755.75
2023-07-23T10:20:14.211Z,96753.47
2023-07-23T10:22:45.174Z,96738.84
2023-07-23T10:25:40.661Z,96742.09
2023-07-23T10:28:10.400Z,96738.91
2023-07-23T10:30:40.205Z,96732.19
2023-07-23T10:33:13.545Z,96738.16
2023-07-23T10:36:05.754Z,96735.22
2023-07-23T10:38:36.801Z,96721.03
2023-07-23T10:41:11.193Z,96720.66
2023-07-23T10:43:39.496Z,96723.72
2023-07-23T10:46:22.827Z,96730.75
2023-07-23T10:48:56.327Z,96710.19
2023-07-23T10:51:24.818Z,96707.63
2023-07-23T10:53:57.308Z,96710.59
2023-07-23T10:56:37.714Z,96695.06
2023-07-23T10:59:10.650Z,96694.00
2023-07-23T11:01:42.114Z,96692.44
2023-07-23T11:04:37.483Z,96685.72
2023-07-23T11:07:05.974Z,96685.81
2023-07-23T11:09:34.627Z,96686.78
2023-07-23T11:12:04.111Z,96681.09
2023-07-23T11:14:31.698Z,96679.69
2023-07-23T11:17:00.635Z,96674.69
2023-07-23T11:19:31.410Z,96678.41
2023-07-23T11:22:00.044Z,96683.44
2023-07-23T11:24:31.595Z,96681.34
2023-07-23T11:27:03.751Z,96669.41
2023-07-23T11:29:34.645Z,96662.19
2023-07-23T11:32:03.108Z,96668.94
2023-07-23T11:34:30.064Z,96659.34
2023-07-23T11:36:59.180Z,96660.22
2023-07-23T11:39:30.552Z,96652.91
2023-07-23T11:41:57.241Z,96653.00
2023-07-23T11:44:24.036Z,96654.00
2023-07-23T11:46:50.711Z,96635.78
2023-07-23T11:49:17.377Z,96639.88
2023-07-23T11:51:46.578Z,96630.38
2023-07-23T11:54:20.286Z,96628.56
2023-07-23T11:56:47.158Z,96622.19
2023-07-23T11:59:19.524Z,96615.69
2023-07-23T12:01:55.656Z,96615.59
2023-07-23T12:04:22.713Z,96612.84
2023-07-23T12:06:49.364Z,96612.56
2023-07-23T12:09:18.258Z,96606.44
2023-07-23T12:11:44.989Z,96607.81
2023-07-23T12:14:16.149Z,96595.81
2023-07-23T12:16:51.088Z,96593.03
2023-07-23T12:19:22.100Z,96599.97
2023-07-23T12:21:50.937Z,96595.50
2023-07-23T12:24:28.237Z,96584.50
2023-07-23T12:26:59.521Z,96589.00
2023-07-23T12:29:30.387Z,96577.69
2023-07-23T12:32:20.767Z,96575.31
2023-07-23T12:34:52.300Z,96554.78
2023-07-23T12:37:19.068Z,96559.78
2023-07-23T12:39:49.717Z,96573.25
2023-07-23T12:42:16.576Z,96549.75
2023-07-23T12:44:45.441Z,96550.50
2023-07-23T12:47:12.163Z,96551.06
2023-07-23T12:49:41.032Z,96557.53
2023-07-23T12:52:11.135Z,96543.69
2023-07-23T12:54:39.942Z,96553.72
2023-07-23T12:57:09.764Z,96541.25
2023-07-23T12:59:39.795Z,96548.84
2023-07-23T13:02:07.543Z,96550.28
2023-07-23T13:04:34.648Z,96530.91
2023-07-23T13:07:03.754Z,96523.91
2023-07-23T13:09:32.587Z,96526.59
2023-07-23T13:12:01.558Z,96545.13
2023-07-23T13:14:30.584Z,96536.47
2023-07-23T13:16:57.251Z,96517.63
2023-07-23T13:19:26.449Z,96501.25
2023-07-23T13:21:55.279Z,96504.97
2023-07-23T13:24:26.697Z,96509.38
2023-07-23T13:26:53.313Z,96509.59
2023-07-23T13:29:22.462Z,96500.91
2023-07-23T13:31:49.137Z,96507.34
2023-07-23T13:34:15.919Z,96500.81
2023-07-23T13:36:45.036Z,96500.94
2023-07-23T13:39:14.888Z,96508.91
2023-07-23T13:41:41.539Z,96513.28
2023-07-23T13:44:10.345Z,96506.94
2023-07-23T13:46:37.336Z,96513.34
2023-07-23T13:49:03.973Z,96516.72
2023-07-23T13:51:33.029Z,96506.66
2023-07-23T13:53:59.601Z,96511.66
2023-07-23T13:56:29.572Z,96516.50
2023-07-23T13:58:58.835Z,96506.28
2023-07-23T14:01:29.118Z,96506.84
2023-07-23T14:04:00.676Z,96491.53
2023-07-23T14:06:27.741Z,96500.50
2023-07-23T14:08:57.486Z,96498.34
2023-07-23T14:11:24.156Z,96493.56
2023-07-23T14:13:52.971Z,96490.59
2023-07-23T14:16:21.874Z,96498.06
2023-07-23T14:18:48.935Z,96496.63
2023-07-23T14:21:21.385Z,96489.84
2023-07-23T14:23:48.068Z,96487.13
2023-07-23T14:26:14.686Z,96487.00
2023-07-23T14:28:41.299Z,96493.31
2023-07-23T14:31:09.060Z,96488.28
2023-07-23T14:33:38.130Z,96492.44
2023-07-23T14:36:09.996Z,96490.53
2023-07-23T14:38:37.435Z,96481.44
2023-07-23T14:41:04.230Z,96482.75
2023-07-23T14:43:34.860Z,96475.88
2023-07-23T14:46:03.663Z,96481.28
2023-07-23T14:48:30.372Z,96479.03
2023-07-23T14:51:01.685Z,96474.91
2023-07-23T14:53:28.675Z,96462.09
2023-07-23T14:55:55.409Z,96473.81
2023-07-23T14:58:24.467Z,96470.25
2023-07-23T15:00:51.404Z,96455.38
2023-07-23T15:03:20.802Z,96464.53
2023-07-23T15:05:50.377Z,96462.09
2023-07-23T15:08:17.096Z,96470.81
2023-07-23T15:10:46.002Z,96452.91
2023-07-23T15:13:12.842Z,96449.94
2023-07-23T15:15:39.809Z,96451.97
2023-07-23T15:18:09.451Z,96457.19
2023-07-23T15:20:41.100Z,96457.97
2023-07-23T15:23:07.937Z,96449.38
2023-07-23T15:25:34.964Z,96441.75
2023-07-23T15:28:06.980Z,96447.56
2023-07-23T15:30:38.302Z,96445.22
2023-07-23T15:33:07.674Z,96437.56
2023-07-23T15:35:34.242Z,96428.50
2023-07-23T15:38:00.902Z,96428.13
2023-07-23T15:40:27.942Z,96428.50
2023-07-23T15:42:57.042Z,96430.88
2023-07-23T15:45:23.805Z,96430.78
2023-07-23T15:47:50.467Z,96426.41
2023-07-23T15:50:19.652Z,96428.75
2023-07-23T15:52:48.482Z,96420.59
2023-07-23T15:55:19.811Z,96426.28
2023-07-23T15:57:46.432Z,96429.22
2023-07-23T16:00:13.278Z,96423.19
2023-07-23T16:02:39.894Z,96429.34
2023-07-23T16:05:06.927Z,96428.75
2023-07-23T16:07:33.618Z,96428.03
2023-07-23T16:10:00.479Z,96423.03
2023-07-23T16:12:29.685Z,96426.56
2023-07-23T16:14:57.568Z,96429.69
2023-07-23T16:17:25.787Z,96421.19
2023-07-23T16:19:54.360Z,96425.06
2023-07-23T16:22:25.973Z,96421.19
2023-07-23T16:24:55.137Z,96415.50
2023-07-23T16:27:26.454Z,96413.84
2023-07-23T16:29:53.110Z,96411.38
2023-07-23T16:32:20.158Z,96413.00
2023-07-23T16:34:51.742Z,96411.34
2023-07-23T16:37:19.787Z,96404.88
2023-07-23T16:39:50.444Z,96401.91
2023-07-23T16:42:19.340Z,96394.91
2023-07-23T16:44:48.411Z,96390.13
2023-07-23T16:47:15.030Z,96401.38
2023-07-23T16:49:41.666Z,96400.75
2023-07-23T16:52:08.369Z,96397.84
2023-07-23T16:54:35.053Z,96400.13
2023-07-23T16:57:02.004Z,96397.25
2023-07-23T16:59:28.556Z,96403.66
2023-07-23T17:01:55.152Z,96411.78
2023-07-23T17:04:24.397Z,96405.09
2023-07-23T17:06:53.509Z,96408.69
2023-07-23T17:09:22.591Z,96396.03
2023-07-23T17:11:49.349Z,96394.00
2023-07-23T17:14:18.132Z,96396.25
2023-07-23T17:16:45.127Z,96385.03
2023-07-23T17:19:17.499Z,96385.47
2023-07-23T17:21:49.385Z,96378.00
2023-07-23T17:24:18.622Z,96381.69
2023-07-23T17:26:45.455Z,96388.09
2023-07-23T17:29:12.072Z,96376.75
2023-07-23T17:31:38.698Z,96380.16
2023-07-23T17:34:08.279Z,96368.09
2023-07-23T17:36:34.823Z,96376.44
2023-07-23T17:39:06.609Z,96374.84
2023-07-23T17:41:35.689Z,96382.66
2023-07-23T17:44:02.349Z,96378.78
2023-07-23T17:46:31.223Z,96380.13
2023-07-23T17:49:00.446Z,96375.53
2023-07-23T17:51:27.209Z,96369.56
2023-07-23T17:53:56.538Z,96377.16
2023-07-23T17:56:25.446Z,96376.84
2023-07-23T17:58:54.761Z,96385.38
2023-07-23T18:01:30.773Z,96386.03
2023-07-23T18:04:02.521Z,96385.38
2023-07-23T18:06:32.185Z,96383.88
2023-07-23T18:08:59.253Z,96387.31
2023-07-23T18:11:34.625Z,96388.88
2023-07-23T18:14:03.463Z,96381.88
2023-07-23T18:16:30.888Z,96389.47
2023-07-23T18:19:00.659Z,96381.19
2023-07-23T18:21:27.243Z,96374.56
2023-07-23T18:23:53.944Z,96379.47
2023-07-23T18:26:20.646Z,96377.66
2023-07-23T18:28:51.773Z,96367.16
2023-07-23T18:31:33.743Z,96370.63
2023-07-23T18:34:07.071Z,96372.28
2023-07-23T18:36:36.499Z,96367.44
2023-07-23T18:39:05.394Z,96365.59
2023-07-23T18:41:36.392Z,96365.84
2023-07-23T18:44:03.580Z,96363.91
2023-07-23T18:46:30.666Z,96358.88
2023-07-23T18:49:00.032Z,96360.97
2023-07-23T18:51:28.702Z,96372.81
2023-07-23T18:53:58.545Z,96366.94
2023-07-23T18:56:25.436Z,96364.78
2023-07-23T18:58:55.246Z,96368.59
2023-07-23T19:01:22.076Z,96359.47
2023-07-23T19:03:55.790Z,96354.97
2023-07-23T19:06:24.932Z,96357.78
2023-07-23T19:08:52.082Z,96361.38
2023-07-23T19:11:18.766Z,96355.13
2023-07-23T19:13:47.639Z,96354.78
2023-07-23T19:16:16.917Z,96356.13
2023-07-23T19:18:48.570Z,96346.47
2023-07-23T19:21:17.717Z,96352.59
2023-07-23T19:23:46.953Z,96356.69
2023-07-23T19:26:16.293Z,96357.44
2023-07-23T19:28:45.563Z,96353.16
2023-07-23T19:31:12.636Z,96350.41
2023-07-23T19:33:41.597Z,96354.94
2023-07-23T19:36:10.475Z,96362.53
2023-07-23T19:38:39.676Z,96360.06
2023-07-23T19:41:06.432Z,96370.16
2023-07-23T19:43:33.112Z,96368.59
2023-07-23T19:46:05.204Z,96366.94
2023-07-23T19:48:36.516Z,96361.41
2023-07-23T19:51:03.249Z,96362.75
2023-07-23T19:53:32.279Z,96363.97
2023-07-23T19:55:59.016Z,96356.41
2023-07-23T19:58:28.804Z,96354.28
2023-07-23T20:00:55.467Z,96349.97
2023-07-23T20:03:24.497Z,96351.22
2023-07-23T20:05:54.643Z,96358.41
2023-07-23T20:08:24.470Z,96359.34
2023-07-23T20:10:51.192Z,96361.81
2023-07-23T20:13:22.437Z,96363.91
2023-07-23T20:15:50.399Z,96370.19
2023-07-23T20:18:17.113Z,96361.69
2023-07-23T20:20:51.100Z,96364.00
2023-07-23T20:23:20.796Z,96355.75
2023-07-23T20:25:54.827Z,96362.31
2023-07-23T20:28:22.328Z,96374.94
2023-07-23T20:30:51.803Z,96376.47
2023-07-23T20:33:20.949Z,96362.44
2023-07-23T20:35:52.481Z,96363.97
2023-07-23T20:38:20.162Z,96350.59
2023-07-23T20:40:48.023Z,96359.69
2023-07-23T20:43:14.978Z,96350.66
2023-07-23T20:45:44.069Z,96357.72
2023-07-23T20:48:10.686Z,96354.22
2023-07-23T20:50:42.197Z,96347.72
2023-07-23T20:53:13.609Z,96332.44
2023-07-23T20:55:40.250Z,96322.34
2023-07-23T20:58:07.158Z,96327.38
2023-07-23T21:00:35.186Z,96332.16
2023-07-23T21:03:01.880Z,96342.28
2023-07-23T21:05:28.520Z,96334.25
2023-07-23T21:07:55.125Z,96323.72
2023-07-23T21:10:21.850Z,96321.19
2023-07-23T21:12:53.100Z,96332.69
2023-07-23T21:15:19.737Z,96323.97
2023-07-23T21:17:46.598Z,96318.47
2023-07-23T21:20:15.551Z,96319.97
2023-07-23T21:22:46.621Z,96326.78
2023-07-23T21:25:13.343Z,96327.28
2023-07-23T21:27:44.711Z,96314.00
2023-07-23T21:30:11.680Z,96313.47
2023-07-23T21:32:43.454Z,96314.47
2023-07-23T21:35:13.367Z,96324.75
2023-07-23T21:37:40.206Z,96330.53
2023-07-23T21:40:10.076Z,96316.00
2023-07-23T21:42:36.661Z,96316.25
2023-07-23T21:45:03.585Z,96322.78
2023-07-23T21:47:32.533Z,96311.47
2023-07-23T21:49:59.190Z,96310.75
2023-07-23T21:52:25.817Z,96316.31
2023-07-23T21:54:54.642Z,96317.75
2023-07-23T21:57:21.300Z,96314.78
2023-07-23T21:59:50.089Z,96308.75
2023-07-23T22:02:17.178Z,96309.00
2023-07-23T22:04:46.918Z,96299.22
2023-07-23T22:07:17.660Z,96296.69
2023-07-23T22:09:47.356Z,96310.03
2023-07-23T22:12:16.300Z,96310.78
2023-07-23T22:14:42.991Z,96293.47
2023-07-23T22:17:11.785Z,96293.47
2023-07-23T22:19:38.454Z,96300.97
2023-07-23T22:22:05.511Z,96302.50
2023-07-23T22:24:32.156Z,96304.75
2023-07-23T22:26:58.940Z,96292.47
2023-07-23T22:29:28.173Z,96285.97
2023-07-23T22:31:57.265Z,96286.72
2023-07-23T22:34:24.033Z,96281.47
2023-07-23T22:36:50.594Z,96274.91
2023-07-23T22:39:19.293Z,96276.41
2023-07-23T22:41:48.293Z,96269.94
2023-07-23T22:44:22.359Z,96272.69
2023-07-23T22:46:50.348Z,96268.66
2023-07-23T22:49:21.771Z,96276.19
2023-07-23T22:51:50.758Z,96274.16
2023-07-23T22:54:22.176Z,96267.91
2023-07-23T22:56:49.007Z,96261.13
2023-07-23T22:59:20.319Z,96262.88
2023-07-23T23:01:54.022Z,96270.13
2023-07-23T23:04:23.052Z,96262.63
2023-07-23T23:06:49.842Z,96257.84
2023-07-23T23:09:21.261Z,96261.59
2023-07-23T23:11:47.820Z,96261.09
2023-07-23T23:14:14.436Z,96261.59
2023-07-23T23:16:43.361Z,96251.06
2023-07-23T23:19:15.323Z,96247.81
2023-07-23T23:21:41.989Z,96254.59
2023-07-23T23:24:13.296Z,96255.09
2023-07-23T23:26:43.538Z,96254.84
2023-07-23T23:29:10.118Z,96248.06
2023-07-23T23:31:36.722Z,96247.59
2023-07-23T23:34:03.411Z,96245.84
2023-07-23T23:36:30.451Z,96241.59
2023-07-23T23:38:57.386Z,96240.31
2023-07-23T23:41:24.008Z,96229.56
2023-07-23T23:43:52.953Z,96237.31
2023-07-23T23:46:21.925Z,96247.06
2023-07-23T23:48:48.595Z,96241.81
2023-07-23T23:51:15.308Z,96252.31
2023-07-23T23:53:46.788Z,96248.53
2023-07-23T23:56:13.477Z,96255.53
2023-07-23T23:58:43.213Z,96261.56
